Time;durP1;ratioP1;P1;durP2;ratioP2;P2;SDS_P1;SDS_P2;PMS_P1;PMS_P2;Temp;Humidity;BMP_temperature;BMP_pressure;BME280_temperature;BME280_humidity;BME280_pressure;Samples;Min_cycle;Max_cycle;Signal;HPM_P1;HPM_P2
2022/09/01 00:01:13;;;;;;;14.03;7.80;;;15.70;99.90;;;;;;4990285;28;20218;-71
2022/09/01 00:03:42;;;;;;;15.37;7.80;;;15.60;99.90;;;;;;4989946;28;20188;-70
2022/09/01 00:06:10;;;;;;;18.77;8.23;;;15.60;99.90;;;;;;4990299;28;20211;-72
2022/09/01 00:08:37;;;;;;;13.77;7.47;;;15.50;99.90;;;;;;4989607;28;20207;-70
2022/09/01 00:11:04;;;;;;;14.83;7.30;;;15.50;99.90;;;;;;4989524;28;20227;-72
2022/09/01 00:13:32;;;;;;;15.03;7.63;;;15.50;99.90;;;;;;4989967;28;20242;-73
2022/09/01 00:16:00;;;;;;;13.80;7.20;;;15.50;99.90;;;;;;4990289;28;20253;-71
2022/09/01 00:18:27;;;;;;;13.77;7.40;;;15.50;99.90;;;;;;4988646;28;20242;-70
2022/09/01 00:20:58;;;;;;;14.13;7.13;;;15.50;99.90;;;;;;4989490;28;20203;-70
2022/09/01 00:23:25;;;;;;;14.10;7.20;;;15.50;99.90;;;;;;4992707;28;20195;-71
2022/09/01 00:25:52;;;;;;;15.20;6.83;;;15.50;99.90;;;;;;4993290;28;20295;-71
2022/09/01 00:28:19;;;;;;;12.43;6.80;;;15.50;99.90;;;;;;4992565;28;20243;-71
2022/09/01 00:30:46;;;;;;;13.27;6.97;;;15.50;99.90;;;;;;4993210;28;20233;-72
2022/09/01 00:33:13;;;;;;;12.87;6.30;;;15.50;99.90;;;;;;4990137;28;20649;-72
2022/09/01 00:35:40;;;;;;;14.50;6.73;;;15.50;99.90;;;;;;4993230;28;20211;-71
2022/09/01 00:38:08;;;;;;;9.37;5.73;;;15.50;99.90;;;;;;4993137;28;20746;-72
2022/09/01 00:40:35;;;;;;;11.87;6.23;;;15.50;99.90;;;;;;4992516;28;20207;-71
2022/09/01 00:43:12;;;;;;;9.17;5.40;;;15.50;99.90;;;;;;4993009;28;20294;-70
2022/09/01 00:45:40;;;;;;;10.80;6.00;;;15.50;99.90;;;;;;4992738;28;20241;-70
2022/09/01 00:48:08;;;;;;;11.37;6.30;;;15.50;99.90;;;;;;4991728;28;20239;-71
2022/09/01 00:50:38;;;;;;;12.20;6.50;;;15.40;99.90;;;;;;4992062;28;20214;-71
2022/09/01 00:53:08;;;;;;;8.00;5.37;;;15.40;99.90;;;;;;4991979;28;20219;-71
2022/09/01 00:55:37;;;;;;;10.13;5.70;;;15.30;99.90;;;;;;4992038;28;20277;-69
2022/09/01 00:58:06;;;;;;;10.43;5.27;;;15.20;99.90;;;;;;4992491;28;20314;-70
2022/09/01 01:00:39;;;;;;;10.23;5.77;;;15.20;99.90;;;;;;4992248;28;20405;-71
2022/09/01 01:03:07;;;;;;;10.63;5.13;;;15.10;99.90;;;;;;4992651;28;20203;-71
2022/09/01 01:05:39;;;;;;;11.70;5.00;;;15.10;99.90;;;;;;4992445;28;20203;-70
2022/09/01 01:08:10;;;;;;;9.10;5.27;;;15.10;99.90;;;;;;4992484;28;20192;-70
2022/09/01 01:10:40;;;;;;;11.43;5.30;;;15.10;99.90;;;;;;4992385;28;20594;-70
2022/09/01 01:13:09;;;;;;;8.47;5.33;;;15.10;99.90;;;;;;4992575;28;20227;-70
2022/09/01 01:15:37;;;;;;;8.97;4.93;;;15.10;99.90;;;;;;4990421;28;20211;-71
2022/09/01 01:18:04;;;;;;;8.17;4.83;;;15.00;99.90;;;;;;4988720;28;20231;-73
2022/09/01 01:23:25;;;;;;;9.70;4.70;;;14.90;99.90;;;;;;4992341;28;20187;-71
2022/09/01 01:25:57;;;;;;;7.10;4.40;;;14.90;99.90;;;;;;4992299;28;20245;-71
2022/09/01 01:28:26;;;;;;;9.70;4.30;;;14.90;99.90;;;;;;4992029;28;20192;-70
2022/09/01 01:30:58;;;;;;;10.33;4.30;;;14.90;99.90;;;;;;4992147;28;20242;-70
2022/09/01 01:33:30;;;;;;;7.17;4.40;;;14.90;99.90;;;;;;4971139;28;20219;-69
2022/09/01 01:35:58;;;;;;;6.73;4.30;;;14.90;99.90;;;;;;4972058;28;20296;-73
2022/09/01 01:38:26;;;;;;;14.93;4.60;;;14.90;99.90;;;;;;4972454;28;20212;-71
2022/09/01 01:40:55;;;;;;;8.00;4.53;;;14.90;99.90;;;;;;4972037;28;20303;-70
2022/09/01 01:43:22;;;;;;;7.67;4.60;;;14.90;99.90;;;;;;4972229;28;20214;-70
2022/09/01 01:45:51;;;;;;;9.10;4.37;;;14.80;99.90;;;;;;4973177;28;20303;-69
2022/09/01 01:48:21;;;;;;;8.60;4.20;;;14.80;99.90;;;;;;4987979;28;20257;-71
2022/09/01 01:50:48;;;;;;;7.70;4.77;;;14.80;99.90;;;;;;4991550;28;20246;-70
2022/09/01 01:53:17;;;;;;;8.77;5.00;;;14.80;99.90;;;;;;4991095;28;20227;-70
2022/09/01 01:55:47;;;;;;;8.10;4.70;;;14.70;99.90;;;;;;4990716;28;20204;-69
2022/09/01 01:58:18;;;;;;;7.07;4.57;;;14.70;99.90;;;;;;4991604;28;20207;-70
2022/09/01 02:00:46;;;;;;;6.77;4.17;;;14.70;99.90;;;;;;4989825;28;20204;-70
2022/09/01 02:03:17;;;;;;;10.47;5.07;;;14.60;99.90;;;;;;4991332;28;20592;-71
2022/09/01 02:05:45;;;;;;;9.33;4.73;;;14.60;99.90;;;;;;4991249;28;20198;-71
2022/09/01 02:08:14;;;;;;;8.67;5.23;;;14.50;99.90;;;;;;4991104;28;20215;-71
2022/09/01 02:10:43;;;;;;;10.03;5.47;;;14.50;99.90;;;;;;4991559;28;20557;-71
2022/09/01 02:13:15;;;;;;;9.57;5.57;;;14.50;99.90;;;;;;4990886;28;20270;-71
2022/09/01 02:15:45;;;;;;;10.97;5.90;;;14.40;99.90;;;;;;4989465;28;20290;-71
2022/09/01 02:18:16;;;;;;;13.10;6.60;;;14.40;99.90;;;;;;4990815;28;20194;-71
2022/09/01 02:20:44;;;;;;;13.13;7.20;;;14.40;99.90;;;;;;4991656;28;20198;-70
2022/09/01 02:23:14;;;;;;;11.30;7.00;;;14.40;99.90;;;;;;4990751;28;20207;-71
2022/09/01 02:25:44;;;;;;;11.27;6.67;;;14.40;99.90;;;;;;4991296;28;20211;-69
2022/09/01 02:28:14;;;;;;;12.90;7.33;;;14.40;99.90;;;;;;4990660;28;20634;-70
2022/09/01 02:30:44;;;;;;;14.27;7.13;;;14.30;99.90;;;;;;4989712;28;20314;-70
2022/09/01 02:33:10;;;;;;;14.17;7.90;;;14.30;99.90;;;;;;4990515;28;20322;-71
2022/09/01 02:35:37;;;;;;;12.73;7.63;;;14.20;99.90;;;;;;4990607;28;20306;-70
2022/09/01 02:38:05;;;;;;;15.33;8.20;;;14.20;99.90;;;;;;4990285;28;20299;-70
2022/09/01 02:40:33;;;;;;;13.43;8.00;;;14.10;99.90;;;;;;4990687;28;20211;-71
2022/09/01 02:43:00;;;;;;;15.30;8.40;;;14.10;99.90;;;;;;4990741;28;20260;-70
2022/09/01 02:45:28;;;;;;;17.10;9.07;;;14.10;99.90;;;;;;4989819;28;20302;-70
2022/09/01 02:47:56;;;;;;;16.50;9.37;;;14.10;99.90;;;;;;4990147;28;20231;-70
2022/09/01 02:50:25;;;;;;;17.87;8.80;;;14.00;99.90;;;;;;4988900;28;20820;-69
2022/09/01 02:52:53;;;;;;;20.03;9.70;;;14.00;99.90;;;;;;4990204;28;20322;-71
2022/09/01 02:55:21;;;;;;;16.53;10.37;;;14.00;99.90;;;;;;4990131;28;20619;-70
2022/09/01 02:57:50;;;;;;;18.27;9.87;;;14.00;99.90;;;;;;4990262;28;20251;-70
2022/09/01 03:00:27;;;;;;;23.00;10.90;;;14.00;99.90;;;;;;4990330;28;20256;-69
2022/09/01 03:02:57;;;;;;;20.93;11.63;;;14.00;99.90;;;;;;4988669;28;20672;-70
2022/09/01 03:05:27;;;;;;;23.80;12.30;;;14.00;99.90;;;;;;4990171;28;20250;-69
2022/09/01 03:07:56;;;;;;;29.13;13.30;;;13.90;99.90;;;;;;4990357;28;20561;-69
2022/09/01 03:10:31;;;;;;;26.43;12.87;;;13.90;99.90;;;;;;4990089;28;20265;-70
2022/09/01 03:13:00;;;;;;;24.23;13.50;;;13.80;99.90;;;;;;4990001;28;20223;-70
2022/09/01 03:15:28;;;;;;;28.17;13.70;;;13.80;99.90;;;;;;4989057;28;20564;-70
2022/09/01 03:17:59;;;;;;;29.23;15.30;;;13.80;99.90;;;;;;4988727;28;20299;-70
2022/09/01 03:20:29;;;;;;;25.90;13.87;;;13.80;99.90;;;;;;4990346;28;20637;-68
2022/09/01 03:22:57;;;;;;;25.93;14.57;;;13.80;99.90;;;;;;4990126;28;20373;-71
2022/09/01 03:25:27;;;;;;;23.47;12.90;;;13.80;99.90;;;;;;4989457;28;20199;-70
2022/09/01 03:28:00;;;;;;;27.03;14.30;;;13.70;99.90;;;;;;4990071;28;20691;-71
2022/09/01 03:30:28;;;;;;;25.23;13.13;;;13.70;99.90;;;;;;4988637;28;20580;-70
2022/09/01 03:32:55;;;;;;;26.87;13.27;;;13.70;99.90;;;;;;4979194;28;20659;-70
2022/09/01 03:35:23;;;;;;;23.47;12.33;;;13.60;99.90;;;;;;4988661;28;20204;-70
2022/09/01 03:37:51;;;;;;;24.20;11.47;;;13.60;99.90;;;;;;4979397;28;20299;-70
2022/09/01 03:40:18;;;;;;;21.97;11.10;;;13.60;99.90;;;;;;4989142;28;20206;-71
2022/09/01 03:42:45;;;;;;;26.10;11.00;;;13.50;99.90;;;;;;4988144;28;20688;-69
2022/09/01 03:45:14;;;;;;;22.10;10.93;;;13.50;99.90;;;;;;4989147;28;20648;-70
2022/09/01 03:47:42;;;;;;;20.40;10.43;;;13.40;99.90;;;;;;4989628;28;20244;-70
2022/09/01 03:50:19;;;;;;;24.10;10.93;;;13.40;99.90;;;;;;4989808;28;20230;-70
2022/09/01 03:52:48;;;;;;;20.27;11.17;;;13.50;99.90;;;;;;4970789;28;20212;-69
2022/09/01 03:55:22;;;;;;;22.57;10.50;;;13.50;99.90;;;;;;4970193;28;20204;-69
2022/09/01 03:57:49;;;;;;;18.60;10.70;;;13.50;99.90;;;;;;4969930;28;20196;-70
2022/09/01 04:00:19;;;;;;;20.03;11.47;;;13.50;99.90;;;;;;4969878;28;20585;-69
2022/09/01 04:02:49;;;;;;;23.93;11.10;;;13.50;99.90;;;;;;4970316;28;20705;-72
2022/09/01 04:05:16;;;;;;;19.37;11.17;;;13.40;99.90;;;;;;4970211;28;20259;-70
2022/09/01 04:07:45;;;;;;;19.83;10.60;;;13.50;99.90;;;;;;4989468;28;20254;-70
2022/09/01 04:10:13;;;;;;;20.23;11.17;;;13.50;99.90;;;;;;4990097;28;20300;-69
2022/09/01 04:12:41;;;;;;;18.43;10.27;;;13.50;99.90;;;;;;4989592;28;20277;-69
2022/09/01 04:15:09;;;;;;;19.07;10.03;;;13.40;99.90;;;;;;4989561;28;20737;-71
2022/09/01 04:20:22;;;;;;;15.80;9.23;;;13.40;99.90;;;;;;4988284;28;20222;-69
2022/09/01 04:22:50;;;;;;;17.27;10.53;;;13.40;99.90;;;;;;4989320;28;20572;-70
2022/09/01 04:25:21;;;;;;;18.73;10.27;;;13.30;99.90;;;;;;4988912;28;20221;-70
2022/09/01 04:27:51;;;;;;;18.17;10.37;;;13.40;99.90;;;;;;4989252;28;20301;-70
2022/09/01 14:43:38;;;;;;;2.67;1.33;;;20.50;81.80;;;;;;5130846;27;20852;-73
2022/09/01 14:46:09;;;;;;;5.50;2.17;;;21.00;82.00;;;;;;5131021;27;20186;-73
2022/09/01 14:48:37;;;;;;;2.80;1.70;;;21.00;82.20;;;;;;5131048;27;20742;-73
2022/09/01 14:51:04;;;;;;;8.10;1.70;;;21.00;81.80;;;;;;5130879;27;20230;-74
2022/09/01 14:53:32;;;;;;;3.00;1.20;;;20.90;81.50;;;;;;5130419;27;20542;-74
2022/09/01 14:56:00;;;;;;;1.87;1.10;;;20.80;81.00;;;;;;5129115;27;20629;-73
2022/09/01 14:58:28;;;;;;;1.57;1.20;;;20.70;79.00;;;;;;5128274;28;20199;-72
2022/09/01 15:00:57;;;;;;;2.40;1.20;;;20.70;79.30;;;;;;5128730;27;20207;-73
2022/09/01 15:03:25;;;;;;;1.33;1.07;;;20.60;79.80;;;;;;5124258;27;20225;-74
2022/09/01 15:05:52;;;;;;;1.23;1.10;;;20.60;79.00;;;;;;5117092;28;20653;-73
2022/09/01 15:08:19;;;;;;;1.40;1.20;;;20.60;78.60;;;;;;5130980;27;20201;-73
2022/09/01 15:10:46;;;;;;;2.13;1.20;;;20.60;78.70;;;;;;5130701;27;20196;-73
2022/09/01 15:13:13;;;;;;;1.10;1.10;;;20.50;78.90;;;;;;5115435;27;20584;-73
2022/09/01 15:15:40;;;;;;;2.57;1.40;;;20.50;78.70;;;;;;5123942;28;20207;-77
2022/09/01 15:18:09;;;;;;;2.23;1.10;;;20.50;78.40;;;;;;5127612;27;20228;-77
2022/09/01 15:20:46;;;;;;;3.40;1.20;;;20.50;78.40;;;;;;5124136;28;20278;-74
2022/09/01 15:23:14;;;;;;;1.20;1.10;;;20.50;77.40;;;;;;5119062;28;20295;-74
2022/09/01 15:25:41;;;;;;;1.40;1.17;;;20.50;77.50;;;;;;5120788;28;20202;-73
2022/09/01 15:28:08;;;;;;;2.10;1.00;;;20.40;77.90;;;;;;5117901;27;20214;-74
2022/09/01 15:30:35;;;;;;;1.40;1.10;;;20.40;78.50;;;;;;5115019;28;20564;-73
2022/09/01 15:33:05;;;;;;;1.23;1.13;;;20.30;78.40;;;;;;5122503;28;20217;-74
2022/09/01 15:35:34;;;;;;;1.43;1.30;;;20.30;77.40;;;;;;5128583;27;20303;-74
2022/09/01 15:38:01;;;;;;;1.47;1.17;;;20.20;78.10;;;;;;5124521;27;20240;-73
2022/09/01 15:40:28;;;;;;;2.20;1.48;;;20.30;78.00;;;;;;5108093;27;20449;-73
2022/09/01 15:42:57;;;;;;;1.53;1.20;;;20.20;77.90;;;;;;5120032;27;20328;-74
2022/09/01 15:45:26;;;;;;;1.10;1.00;;;20.20;77.40;;;;;;5098129;27;20228;-72
2022/09/01 15:47:53;;;;;;;1.50;1.10;;;20.20;77.10;;;;;;5101710;28;20206;-74
2022/09/01 15:50:21;;;;;;;1.00;1.00;;;20.10;77.60;;;;;;5114692;28;20229;-74
2022/09/01 15:52:52;;;;;;;2.03;1.10;;;20.10;78.10;;;;;;5107043;28;20691;-73
2022/09/01 15:55:21;;;;;;;5.30;1.23;;;20.20;78.10;;;;;;5094498;28;20233;-73
2022/09/01 15:57:48;;;;;;;2.70;1.33;;;20.10;77.90;;;;;;5102371;28;20254;-73
2022/09/01 16:00:17;;;;;;;1.80;1.40;;;20.10;78.00;;;;;;5100566;28;20208;-74
2022/09/01 16:02:44;;;;;;;1.80;1.20;;;20.00;78.70;;;;;;5110716;28;20216;-74
2022/09/01 16:05:11;;;;;;;1.77;1.20;;;19.90;78.50;;;;;;5111475;28;20226;-75
2022/09/01 16:07:38;;;;;;;2.30;1.40;;;19.90;78.80;;;;;;5100128;28;20293;-75
2022/09/01 16:10:10;;;;;;;6.17;1.60;;;19.90;79.00;;;;;;5107996;28;20700;-74
2022/09/01 16:12:38;;;;;;;2.30;1.50;;;19.80;79.00;;;;;;5104574;28;20220;-71
2022/09/01 16:15:07;;;;;;;1.80;1.20;;;19.80;79.40;;;;;;5114707;28;20290;-74
2022/09/01 16:17:51;;;;;;;2.13;1.30;;;19.70;79.50;;;;;;5110298;28;20613;-73
2022/09/01 16:20:22;;;;;;;2.50;1.40;;;19.70;80.10;;;;;;5093181;28;20549;-73
2022/09/01 16:22:55;;;;;;;2.90;1.40;;;19.60;80.40;;;;;;5103149;28;20183;-73
2022/09/01 16:25:30;;;;;;;3.10;1.43;;;19.60;80.70;;;;;;5114691;28;20223;-73
2022/09/01 16:28:00;;;;;;;2.70;2.17;;;19.60;81.10;;;;;;5097866;28;20563;-74
2022/09/01 16:30:28;;;;;;;2.93;1.60;;;19.60;81.10;;;;;;5111759;28;20192;-73
2022/09/01 16:32:58;;;;;;;3.63;1.70;;;19.60;81.00;;;;;;5114963;28;20586;-73
2022/09/01 16:35:35;;;;;;;6.10;2.77;;;19.40;82.00;;;;;;5114852;28;20216;-73
2022/09/01 16:38:12;;;;;;;12.73;4.80;;;19.30;82.40;;;;;;5094772;28;20734;-73
2022/09/01 16:40:46;;;;;;;23.80;10.60;;;19.20;82.80;;;;;;5094798;28;20196;-73
2022/09/01 16:43:23;;;;;;;28.23;13.57;;;19.10;83.00;;;;;;5093511;28;20238;-73
2022/09/01 16:45:57;;;;;;;33.90;18.53;;;19.00;83.40;;;;;;5094295;28;20193;-76
2022/09/01 16:48:32;;;;;;;34.50;18.57;;;18.90;83.40;;;;;;5106722;28;20199;-74
2022/09/01 16:51:05;;;;;;;36.53;20.17;;;18.90;83.70;;;;;;5114206;28;20195;-77
2022/09/01 16:53:46;;;;;;;37.87;20.17;;;18.90;84.10;;;;;;5113686;27;20227;-77
2022/09/01 16:56:23;;;;;;;31.77;16.73;;;18.90;85.50;;;;;;5110181;28;20275;-75
2022/09/01 16:58:58;;;;;;;27.50;14.97;;;18.90;88.50;;;;;;5106786;28;20231;-73
2022/09/01 17:01:36;;;;;;;22.73;12.87;;;18.80;90.60;;;;;;5115280;28;20203;-73
2022/09/01 17:04:22;;;;;;;23.27;11.80;;;18.80;91.20;;;;;;5094222;28;20192;-75
2022/09/01 17:06:57;;;;;;;19.70;11.23;;;18.80;91.90;;;;;;5094280;28;20196;-74
2022/09/01 17:09:30;;;;;;;17.53;10.23;;;18.70;92.30;;;;;;5109096;28;20641;-74
2022/09/01 17:12:26;;;;;;;16.53;9.97;;;18.70;92.70;;;;;;5101804;28;20612;-74
2022/09/01 17:14:58;;;;;;;18.67;9.80;;;18.70;93.40;;;;;;5094782;28;20569;-73
2022/09/01 17:17:34;;;;;;;13.17;8.17;;;18.60;93.80;;;;;;5114189;28;20229;-77
2022/09/01 17:20:03;;;;;;;13.47;7.60;;;18.50;94.10;;;;;;5113879;28;20258;-73
2022/09/01 17:22:32;;;;;;;12.73;7.13;;;18.60;94.50;;;;;;5112229;28;20211;-74
2022/09/01 17:25:06;;;;;;;14.80;7.70;;;18.50;94.70;;;;;;5103545;27;20543;-75
2022/09/01 17:27:39;;;;;;;11.50;6.97;;;18.50;95.00;;;;;;5103167;28;20207;-76
2022/09/01 17:30:07;;;;;;;12.20;6.20;;;18.50;95.10;;;;;;5099925;28;20205;-76
2022/09/01 17:32:52;;;;;;;10.60;6.67;;;18.40;95.70;;;;;;5098190;28;20305;-74
2022/09/01 17:35:26;;;;;;;14.47;7.93;;;18.30;95.90;;;;;;5107276;28;20193;-73
2022/09/01 17:38:02;;;;;;;13.33;7.23;;;18.30;96.30;;;;;;5113908;28;20666;-73
2022/09/01 17:40:40;;;;;;;14.20;7.17;;;18.20;96.30;;;;;;5103385;27;20194;-74
2022/09/01 17:43:16;;;;;;;13.23;7.93;;;18.20;96.60;;;;;;5092443;28;20238;-73
2022/09/01 17:45:50;;;;;;;10.73;6.10;;;18.10;96.70;;;;;;5104085;28;20199;-75
2022/09/01 17:48:20;;;;;;;12.13;5.60;;;18.10;96.90;;;;;;5099572;28;20272;-75
2022/09/01 17:51:02;;;;;;;10.00;5.20;;;18.10;96.90;;;;;;5098394;28;20211;-75
2022/09/01 17:53:38;;;;;;;8.53;4.97;;;18.10;97.00;;;;;;5109665;28;20258;-73
2022/09/01 17:56:13;;;;;;;7.43;4.70;;;18.00;97.00;;;;;;5092027;28;20597;-73
2022/09/01 17:58:50;;;;;;;9.10;4.33;;;18.00;97.20;;;;;;5092474;28;20192;-73
2022/09/01 18:01:24;;;;;;;8.63;4.93;;;18.00;97.30;;;;;;5092363;28;20205;-72
2022/09/01 18:04:16;;;;;;;7.33;4.70;;;17.90;97.30;;;;;;5092127;28;20197;-72
2022/09/01 18:06:49;;;;;;;5.47;3.53;;;17.90;97.30;;;;;;5092285;28;20549;-72
2022/09/01 18:09:20;;;;;;;5.97;3.90;;;17.90;97.40;;;;;;5091537;28;20197;-72
2022/09/01 18:11:51;;;;;;;12.13;4.30;;;17.80;97.40;;;;;;5103339;28;20341;-72
2022/09/01 18:14:22;;;;;;;9.50;3.87;;;17.80;97.50;;;;;;5095751;28;20212;-72
2022/09/01 18:16:58;;;;;;;8.33;3.60;;;17.80;97.60;;;;;;5095868;28;20595;-73
2022/09/01 18:19:35;;;;;;;7.73;3.73;;;17.80;97.60;;;;;;5103979;28;20209;-71
2022/09/01 18:22:06;;;;;;;8.00;4.10;;;17.80;97.60;;;;;;5094309;28;20557;-70
2022/09/01 18:24:38;;;;;;;5.67;3.47;;;17.80;97.60;;;;;;5093490;28;20200;-73
2022/09/01 18:27:06;;;;;;;7.67;4.77;;;17.80;97.60;;;;;;5094571;28;20209;-72
2022/09/01 18:29:34;;;;;;;7.40;4.90;;;17.80;97.80;;;;;;5098960;28;20599;-72
2022/09/01 18:32:20;;;;;;;8.97;4.60;;;17.80;97.70;;;;;;5111359;28;20614;-73
2022/09/01 18:35:10;;;;;;;9.97;5.10;;;17.70;97.80;;;;;;5102220;28;20571;-72
2022/09/01 18:37:46;;;;;;;7.63;4.17;;;17.70;97.80;;;;;;5108942;28;20215;-71
2022/09/01 18:40:21;;;;;;;4.67;3.50;;;17.70;97.90;;;;;;5093726;28;20255;-72
2022/09/01 18:42:57;;;;;;;7.93;4.20;;;17.70;97.90;;;;;;5092253;28;20740;-71
2022/09/01 18:45:34;;;;;;;7.33;4.93;;;17.60;97.90;;;;;;5093675;28;20231;-72
2022/09/01 18:48:11;;;;;;;6.17;3.80;;;17.60;97.90;;;;;;5102640;28;20188;-69
2022/09/01 18:50:45;;;;;;;8.47;3.87;;;17.60;98.00;;;;;;5112862;28;20192;-71
2022/09/01 18:53:26;;;;;;;8.57;4.70;;;17.60;98.00;;;;;;5103799;28;20570;-72
2022/09/01 18:55:58;;;;;;;7.77;4.97;;;17.60;98.00;;;;;;5110850;28;20226;-73
2022/09/01 18:58:39;;;;;;;10.43;4.70;;;17.60;98.10;;;;;;5112285;28;20194;-71
2022/09/01 19:01:09;;;;;;;7.33;4.77;;;17.50;98.10;;;;;;5110307;28;20690;-71
2022/09/01 19:03:41;;;;;;;9.27;5.40;;;17.50;98.30;;;;;;5106685;28;20232;-73
2022/09/01 19:06:30;;;;;;;7.20;4.70;;;17.50;98.50;;;;;;5114346;28;20208;-73
2022/09/01 19:09:11;;;;;;;9.57;4.90;;;17.40;98.50;;;;;;5103565;28;20193;-72
2022/09/01 19:11:49;;;;;;;10.03;5.80;;;17.40;98.60;;;;;;5095458;28;20216;-71
2022/09/01 19:14:26;;;;;;;7.37;4.40;;;17.40;98.60;;;;;;5093059;28;20205;-72
2022/09/01 19:17:09;;;;;;;8.90;5.10;;;17.30;98.40;;;;;;5092479;28;20180;-74
2022/09/01 19:19:44;;;;;;;7.50;4.60;;;17.30;98.50;;;;;;5105442;28;20302;-75
2022/09/01 19:22:16;;;;;;;12.70;9.03;;;17.30;98.50;;;;;;5106456;28;20277;-73
2022/09/01 19:24:47;;;;;;;14.07;6.03;;;17.30;98.60;;;;;;5102499;28;20252;-71
2022/09/01 19:27:17;;;;;;;10.70;5.73;;;17.20;98.30;;;;;;5099814;28;20223;-73
2022/09/01 19:29:48;;;;;;;10.07;5.30;;;17.20;98.10;;;;;;5107225;28;20660;-70
2022/09/01 19:32:19;;;;;;;6.83;4.50;;;17.10;98.10;;;;;;5102496;28;20193;-72
2022/09/01 19:34:51;;;;;;;9.60;4.87;;;17.10;98.10;;;;;;5104646;28;20251;-72
2022/09/01 19:37:18;;;;;;;8.03;4.80;;;17.00;98.10;;;;;;5095342;28;20255;-73
2022/09/01 19:39:47;;;;;;;10.53;5.23;;;17.00;98.20;;;;;;5095329;28;20204;-73
2022/09/01 19:42:19;;;;;;;8.13;5.13;;;17.00;98.30;;;;;;5093576;28;20315;-72
2022/09/01 19:44:51;;;;;;;10.20;5.87;;;16.80;98.80;;;;;;5094420;28;20204;-73
2022/09/01 19:47:29;;;;;;;9.53;5.60;;;16.70;99.00;;;;;;5095343;28;20189;-71
2022/09/01 19:50:05;;;;;;;13.57;6.27;;;16.70;99.40;;;;;;5097209;28;20216;-73
2022/09/01 19:52:38;;;;;;;9.97;5.90;;;16.60;99.50;;;;;;5095139;28;20203;-72
2022/09/01 19:55:11;;;;;;;10.43;5.90;;;16.60;99.60;;;;;;5094709;28;20235;-72
2022/09/01 19:57:45;;;;;;;12.60;7.63;;;16.50;99.60;;;;;;5109296;28;20563;-72
2022/09/01 20:00:15;;;;;;;14.43;7.70;;;16.50;99.60;;;;;;5114572;28;20233;-73
2022/09/01 20:02:51;;;;;;;13.77;6.53;;;16.40;99.50;;;;;;5095799;28;20236;-71
2022/09/01 20:05:26;;;;;;;10.77;5.90;;;16.40;99.60;;;;;;5094944;28;20594;-73
2022/09/01 20:07:58;;;;;;;12.93;6.40;;;16.30;99.70;;;;;;5094594;28;20223;-73
2022/09/01 20:10:47;;;;;;;11.83;6.50;;;16.20;99.70;;;;;;5094609;28;20194;-73
2022/09/01 20:13:42;;;;;;;10.80;5.60;;;16.20;99.80;;;;;;5094586;28;20218;-73
2022/09/01 20:16:20;;;;;;;10.90;5.90;;;16.20;99.90;;;;;;5072094;28;20212;-71
2022/09/01 20:18:51;;;;;;;10.37;5.93;;;16.10;99.90;;;;;;5094849;28;20282;-72
2022/09/01 20:21:18;;;;;;;13.37;8.23;;;16.10;99.90;;;;;;5097092;28;20286;-72
2022/09/01 20:23:52;;;;;;;11.57;6.30;;;16.00;99.90;;;;;;5114132;28;20191;-72
2022/09/01 20:26:25;;;;;;;10.77;5.97;;;16.00;99.90;;;;;;5114790;28;20272;-73
2022/09/01 20:28:59;;;;;;;10.07;5.67;;;16.00;99.90;;;;;;5114620;28;20191;-72
2022/09/01 20:31:28;;;;;;;12.17;6.17;;;16.00;99.90;;;;;;5115007;28;20642;-73
2022/09/01 20:34:01;;;;;;;14.13;7.10;;;15.90;99.90;;;;;;5098589;28;20232;-73
2022/09/01 20:36:35;;;;;;;10.93;6.90;;;15.90;99.90;;;;;;5094494;28;20659;-72
2022/09/01 20:41:58;;;;;;;13.57;9.10;;;15.70;99.90;;;;;;5114039;28;20226;-75
2022/09/01 20:44:35;;;;;;;14.10;7.83;;;15.70;99.90;;;;;;5114634;28;20199;-70
2022/09/01 20:47:04;;;;;;;13.33;8.33;;;15.60;99.90;;;;;;5115017;28;20211;-71
2022/09/01 20:49:34;;;;;;;15.30;7.67;;;15.60;99.90;;;;;;5107828;28;20276;-70
2022/09/01 20:52:10;;;;;;;15.37;8.27;;;15.60;99.90;;;;;;5102976;28;20207;-72
2022/09/01 20:54:41;;;;;;;16.30;8.83;;;15.60;99.90;;;;;;5106927;28;20258;-72
2022/09/01 20:57:24;;;;;;;12.97;7.97;;;15.50;99.90;;;;;;5101160;28;20203;-72
2022/09/01 20:59:54;;;;;;;11.77;7.47;;;15.60;99.90;;;;;;5093636;28;20188;-73
2022/09/01 21:02:44;;;;;;;11.63;7.73;;;15.50;99.90;;;;;;5093759;28;20555;-71
2022/09/01 21:05:32;;;;;;;13.80;7.90;;;15.50;99.90;;;;;;5105718;28;20199;-71
2022/09/01 21:08:18;;;;;;;13.10;7.37;;;15.50;99.90;;;;;;5100419;28;20563;-72
2022/09/01 21:10:51;;;;;;;15.27;7.87;;;15.50;99.90;;;;;;5105092;28;20485;-71
2022/09/01 21:13:28;;;;;;;18.77;8.60;;;15.50;99.90;;;;;;5093211;28;20240;-71
2022/09/01 21:15:59;;;;;;;13.10;8.20;;;15.50;99.90;;;;;;5108294;28;20187;-71
2022/09/01 21:18:42;;;;;;;15.63;7.80;;;15.50;99.90;;;;;;5107770;28;20714;-71
2022/09/01 21:21:22;;;;;;;11.50;7.20;;;15.40;99.90;;;;;;5102496;28;20196;-71
2022/09/01 21:23:48;;;;;;;12.50;7.40;;;15.40;99.90;;;;;;5113950;28;20245;-72
2022/09/01 21:26:15;;;;;;;12.87;7.60;;;15.40;99.90;;;;;;5103898;28;20291;-72
2022/09/01 21:28:42;;;;;;;11.63;7.37;;;15.30;99.90;;;;;;5114094;28;20693;-73
2022/09/01 21:31:09;;;;;;;12.27;6.90;;;15.30;99.90;;;;;;5114406;28;20354;-75
2022/09/01 21:33:36;;;;;;;11.53;6.60;;;15.30;99.90;;;;;;5113674;28;20227;-72
2022/09/01 21:36:03;;;;;;;10.40;6.90;;;15.30;99.90;;;;;;5114187;28;20200;-72
2022/09/01 21:38:31;;;;;;;14.53;7.10;;;15.20;99.90;;;;;;5096221;28;20243;-70
2022/09/01 21:41:00;;;;;;;12.63;7.23;;;15.10;99.90;;;;;;5092639;28;20208;-72
2022/09/01 21:43:31;;;;;;;12.73;7.00;;;15.00;99.90;;;;;;5101211;28;20351;-72
2022/09/01 21:45:58;;;;;;;12.30;7.00;;;14.90;99.90;;;;;;5113496;28;20589;-71
2022/09/01 21:48:25;;;;;;;10.97;6.77;;;14.90;99.90;;;;;;5112804;28;20200;-71
2022/09/01 21:50:52;;;;;;;13.00;7.10;;;14.80;99.90;;;;;;5113474;28;20210;-72
2022/09/01 21:53:19;;;;;;;13.83;7.50;;;14.80;99.90;;;;;;5113186;28;20219;-72
2022/09/01 21:55:47;;;;;;;13.70;8.07;;;14.80;99.90;;;;;;5113339;28;20219;-75
2022/09/01 21:58:14;;;;;;;14.83;6.90;;;14.80;99.90;;;;;;5112955;28;20203;-72
2022/09/01 22:00:42;;;;;;;10.80;6.50;;;14.80;99.90;;;;;;5104092;28;20204;-72
2022/09/01 22:03:10;;;;;;;16.20;7.47;;;14.80;99.90;;;;;;5113530;28;20614;-71
2022/09/01 22:05:40;;;;;;;13.50;7.03;;;14.80;99.90;;;;;;5112398;28;20541;-73
2022/09/01 22:08:07;;;;;;;13.43;6.87;;;14.80;99.90;;;;;;5112762;28;20207;-72
2022/09/01 22:10:34;;;;;;;11.90;6.87;;;14.70;99.90;;;;;;5113080;28;20567;-71
2022/09/01 22:13:03;;;;;;;11.50;7.27;;;14.70;99.90;;;;;;5112914;28;20298;-71
2022/09/01 22:15:30;;;;;;;11.13;6.73;;;14.70;99.90;;;;;;5092058;28;20205;-72
2022/09/01 22:17:57;;;;;;;11.70;7.47;;;14.70;99.90;;;;;;5104798;28;20240;-71
2022/09/01 22:20:30;;;;;;;12.23;7.37;;;14.60;99.90;;;;;;5112062;28;20199;-71
2022/09/01 22:23:00;;;;;;;13.53;7.60;;;14.60;99.90;;;;;;5112697;28;20245;-73
2022/09/01 22:25:29;;;;;;;12.97;7.50;;;14.60;99.90;;;;;;5112975;28;20198;-72
2022/09/01 22:27:55;;;;;;;12.83;7.50;;;14.60;99.90;;;;;;5113144;28;20295;-72
2022/09/01 22:30:24;;;;;;;13.10;7.83;;;14.60;99.90;;;;;;5113073;28;20207;-73
2022/09/01 22:32:50;;;;;;;14.67;8.00;;;14.50;99.90;;;;;;5113270;28;20211;-72
2022/09/01 22:35:18;;;;;;;14.40;8.43;;;14.50;99.90;;;;;;5097295;28;20228;-74
2022/09/01 22:37:46;;;;;;;15.07;8.70;;;14.50;99.90;;;;;;5093049;28;20606;-73
2022/09/01 22:40:14;;;;;;;15.23;9.23;;;14.40;99.90;;;;;;5092339;28;20204;-72
2022/09/01 22:42:41;;;;;;;17.07;8.93;;;14.40;99.90;;;;;;5112500;28;20263;-72
2022/09/01 22:45:10;;;;;;;14.00;8.87;;;14.40;99.90;;;;;;5113174;28;20195;-71
2022/09/01 22:47:38;;;;;;;18.10;8.83;;;14.30;99.90;;;;;;5105778;28;20199;-71
2022/09/01 22:50:06;;;;;;;12.70;8.07;;;14.30;99.90;;;;;;5097020;28;20200;-73
2022/09/01 22:52:34;;;;;;;19.97;9.03;;;14.30;99.90;;;;;;5095210;28;20223;-71
2022/09/01 22:55:02;;;;;;;16.00;8.50;;;14.30;99.90;;;;;;5116807;28;20230;-73
2022/09/01 22:57:29;;;;;;;17.67;8.70;;;14.20;99.90;;;;;;5116793;28;20199;-71
2022/09/01 22:59:56;;;;;;;14.27;8.80;;;14.20;99.90;;;;;;5117068;28;20690;-71
2022/09/01 23:02:23;;;;;;;18.47;10.50;;;14.20;99.90;;;;;;5117147;28;20203;-71
2022/09/01 23:04:51;;;;;;;14.77;9.03;;;14.20;99.90;;;;;;5109418;28;20203;-72
2022/09/01 23:07:18;;;;;;;17.53;10.07;;;14.20;99.90;;;;;;5109243;28;20199;-72
2022/09/01 23:09:45;;;;;;;18.07;10.80;;;14.20;99.90;;;;;;5105503;28;20225;-71
2022/09/01 23:12:12;;;;;;;18.23;10.90;;;14.20;99.90;;;;;;5116896;28;20214;-72
2022/09/01 23:14:39;;;;;;;24.93;12.07;;;14.20;99.90;;;;;;5117094;28;20651;-71
2022/09/01 23:17:05;;;;;;;16.23;10.53;;;14.10;99.90;;;;;;5116556;28;20202;-72
2022/09/01 23:19:32;;;;;;;19.03;11.13;;;14.20;99.90;;;;;;5116346;28;20310;-73